createdAt,value
2022-12-12T00:00:45.575Z,22.60
2022-12-12T00:03:13.356Z,20.98
2022-12-12T00:05:41.292Z,20.55
2022-12-12T00:08:09.083Z,22.33
2022-12-12T00:10:37.186Z,18.83
2022-12-12T00:13:06.269Z,20.42
2022-12-12T00:15:34.005Z,20.30
2022-12-12T00:18:01.815Z,19.10
2022-12-12T00:20:29.584Z,18.92
2022-12-12T00:22:57.356Z,18.83
2022-12-12T00:25:25.032Z,21.60
2022-12-12T00:27:52.759Z,18.90
2022-12-12T00:30:21.895Z,20.98
2022-12-12T00:32:49.565Z,23.27
2022-12-12T00:35:17.536Z,21.00
2022-12-12T00:37:45.197Z,25.42
2022-12-12T00:40:14.329Z,21.08
2022-12-12T00:42:42.056Z,20.48
2022-12-12T00:45:10.760Z,22.27
2022-12-12T00:47:40.130Z,18.40
2022-12-12T00:50:09.218Z,20.45
2022-12-12T00:52:36.954Z,19.55
2022-12-12T00:55:05.443Z,22.00
2022-12-12T00:57:33.143Z,19.00
2022-12-12T01:00:01.709Z,19.20
2022-12-12T01:02:29.450Z,18.33
2022-12-12T01:04:58.539Z,20.65
2022-12-12T01:07:26.503Z,19.20
2022-12-12T01:09:54.209Z,19.40
2022-12-12T01:12:21.928Z,18.63
2022-12-12T01:14:49.885Z,19.30
2022-12-12T01:17:17.749Z,19.00
2022-12-12T01:19:45.540Z,22.88
2022-12-12T01:22:14.620Z,21.10
2022-12-12T01:24:42.275Z,19.65
2022-12-12T01:27:10.016Z,21.92
2022-12-12T01:29:37.844Z,20.00
2022-12-12T01:32:06.017Z,20.33
2022-12-12T01:34:33.628Z,20.73
2022-12-12T01:37:01.300Z,20.77
2022-12-12T01:39:30.303Z,20.25
2022-12-12T01:41:58.033Z,22.08
2022-12-12T01:44:40.969Z,20.77
2022-12-12T01:47:08.834Z,21.38
2022-12-12T01:49:37.002Z,20.95
2022-12-12T01:52:07.555Z,21.25
2022-12-12T01:54:40.483Z,20.48
2022-12-12T01:57:10.522Z,20.45
2022-12-12T01:59:38.971Z,20.77
2022-12-12T02:02:07.310Z,21.13
2022-12-12T02:04:35.381Z,23.73
2022-12-12T02:07:03.239Z,22.02
2022-12-12T02:09:31.184Z,22.90
2022-12-12T02:12:00.490Z,22.52
2022-12-12T02:14:30.752Z,21.95
2022-12-12T02:17:44.680Z,23.75
2022-12-12T02:20:42.561Z,21.15
2022-12-12T02:23:26.390Z,22.05
2022-12-12T02:26:06.992Z,22.35
2022-12-12T02:31:33.447Z,22.02
2022-12-12T02:34:04.845Z,23.23
2022-12-12T02:36:37.821Z,25.00
2022-12-12T02:39:09.704Z,23.92
2022-12-12T02:41:40.275Z,22.33
2022-12-12T02:44:14.668Z,22.15
2022-12-12T02:46:49.077Z,22.13
2022-12-12T02:49:19.855Z,23.38
2022-12-12T02:51:48.852Z,27.90
2022-12-12T02:54:18.477Z,23.80
2022-12-12T02:56:52.927Z,23.17
2022-12-12T02:59:25.692Z,25.25
2022-12-12T03:02:24.807Z,26.70
2022-12-12T03:05:28.108Z,25.50
2022-12-12T03:08:03.921Z,24.73
2022-12-12T03:10:42.150Z,23.85
2022-12-12T03:13:13.383Z,27.85
2022-12-12T03:15:45.856Z,23.55
2022-12-12T03:18:23.309Z,25.35
2022-12-12T03:20:53.609Z,23.63
2022-12-12T03:23:26.292Z,27.67
2022-12-12T03:26:01.164Z,25.73
2022-12-12T03:28:32.560Z,23.35
2022-12-12T03:31:04.186Z,23.48
2022-12-12T03:33:37.274Z,24.10
2022-12-12T03:36:09.128Z,24.75
2022-12-12T03:38:39.446Z,24.13
2022-12-12T03:41:10.611Z,25.35
2022-12-12T03:43:41.567Z,22.98
2022-12-12T03:46:13.660Z,23.42
2022-12-12T03:48:45.215Z,23.90
2022-12-12T03:51:15.777Z,25.17
2022-12-12T03:53:46.006Z,23.73
2022-12-12T03:56:17.258Z,24.42
2022-12-12T03:58:48.635Z,23.95
2022-12-12T04:01:17.328Z,22.50
2022-12-12T04:03:50.951Z,21.30
2022-12-12T04:06:28.512Z,24.63
2022-12-12T04:09:16.572Z,23.92
2022-12-12T04:12:13.209Z,22.25
2022-12-12T04:14:56.377Z,23.02
2022-12-12T04:17:30.580Z,21.48
2022-12-12T04:20:20.629Z,23.88
2022-12-12T04:23:11.153Z,22.00
2022-12-12T04:26:01.646Z,24.08
2022-12-12T04:28:29.945Z,21.77
2022-12-12T04:31:01.659Z,19.33
2022-12-12T04:33:30.776Z,20.52
2022-12-12T04:36:01.435Z,20.40
2022-12-12T04:38:29.222Z,22.23
2022-12-12T04:40:58.820Z,23.67
2022-12-12T04:43:28.869Z,20.48
2022-12-12T04:45:58.632Z,21.23
2022-12-12T04:48:29.392Z,22.08
2022-12-12T04:51:00.136Z,20.23
2022-12-12T04:53:30.933Z,20.55
2022-12-12T04:56:00.848Z,22.02
2022-12-12T04:58:28.930Z,19.70
2022-12-12T05:01:01.225Z,21.15
2022-12-12T05:03:33.611Z,19.80
2022-12-12T05:06:04.516Z,19.55
2022-12-12T05:08:33.760Z,22.30
2022-12-12T05:11:03.647Z,21.95
2022-12-12T05:13:32.945Z,23.33
2022-12-12T05:16:01.919Z,21.33
2022-12-12T05:18:30.596Z,23.83
2022-12-12T05:20:58.373Z,20.58
2022-12-12T05:23:33.003Z,21.63
2022-12-12T05:26:07.569Z,22.00
2022-12-12T05:28:35.813Z,23.77
2022-12-12T05:31:03.604Z,23.42
2022-12-12T05:33:31.391Z,23.63
2022-12-12T05:35:59.067Z,23.38
2022-12-12T05:38:28.124Z,24.85
2022-12-12T05:40:55.859Z,26.10
2022-12-12T05:43:23.634Z,25.35
2022-12-12T05:45:51.650Z,23.77
2022-12-12T05:48:24.094Z,25.05
2022-12-12T05:50:52.350Z,27.55
2022-12-12T05:53:20.167Z,27.20
2022-12-12T05:55:50.226Z,27.08
2022-12-12T05:58:17.990Z,30.17
2022-12-12T06:00:46.231Z,28.63
2022-12-12T06:03:13.973Z,28.73
2022-12-12T06:05:41.754Z,28.30
2022-12-12T06:08:09.920Z,29.48
2022-12-12T06:10:37.689Z,29.83
2022-12-12T06:13:06.750Z,28.35
2022-12-12T06:15:34.588Z,31.30
2022-12-12T06:18:02.363Z,28.15
2022-12-12T06:20:30.567Z,27.20
2022-12-12T06:22:58.302Z,29.15
2022-12-12T06:25:26.057Z,31.63
2022-12-12T06:27:53.860Z,28.42
2022-12-12T06:30:22.971Z,28.50
2022-12-12T06:32:50.679Z,30.17
2022-12-12T06:35:18.485Z,30.45
2022-12-12T06:37:48.331Z,30.85
2022-12-12T06:40:17.084Z,32.33
2022-12-12T06:42:48.207Z,32.28
2022-12-12T06:45:16.767Z,32.75
2022-12-12T06:47:45.920Z,31.83
2022-12-12T06:50:14.416Z,33.53
2022-12-12T06:52:44.498Z,30.35
2022-12-12T06:55:12.372Z,29.55
2022-12-12T06:57:40.195Z,31.73
2022-12-12T07:00:10.031Z,33.35
2022-12-12T07:02:37.764Z,30.92
2022-12-12T07:05:07.965Z,31.23
2022-12-12T07:07:35.651Z,32.00
2022-12-12T07:10:03.325Z,30.33
2022-12-12T07:12:30.994Z,29.92
2022-12-12T07:14:58.751Z,32.15
2022-12-12T07:17:26.454Z,32.00
2022-12-12T07:19:54.159Z,32.50
2022-12-12T07:22:23.338Z,31.02
2022-12-12T07:24:52.523Z,31.77
2022-12-12T07:27:21.949Z,31.60
2022-12-12T07:29:49.817Z,33.90
2022-12-12T07:32:17.499Z,33.30
2022-12-12T07:34:45.309Z,34.67
2022-12-12T07:37:13.002Z,29.83
2022-12-12T07:39:42.079Z,31.63
2022-12-12T07:42:09.752Z,33.30
2022-12-12T07:44:37.586Z,33.50
2022-12-12T07:47:06.393Z,33.70
2022-12-12T07:49:34.067Z,31.45
2022-12-12T07:52:01.795Z,27.95
2022-12-12T07:54:29.455Z,30.02
2022-12-12T07:57:00.180Z,29.50
2022-12-12T07:59:27.891Z,34.00
2022-12-12T08:01:55.603Z,39.97
2022-12-12T08:04:23.716Z,35.15
2022-12-12T08:06:59.678Z,33.17
2022-12-12T08:09:29.657Z,37.83
2022-12-12T08:11:59.383Z,31.13
2022-12-12T08:14:27.422Z,32.13
2022-12-12T08:16:55.216Z,32.60
2022-12-12T08:19:23.095Z,31.40
2022-12-12T08:21:50.775Z,30.45
2022-12-12T08:24:18.700Z,30.42
2022-12-12T08:26:46.844Z,27.95
2022-12-12T08:29:15.858Z,27.35
2022-12-12T08:31:43.634Z,28.38
2022-12-12T08:34:11.569Z,33.80
2022-12-12T08:36:39.580Z,29.63
2022-12-12T08:39:09.259Z,31.70
2022-12-12T08:41:38.318Z,29.85
2022-12-12T08:44:06.369Z,31.25
2022-12-12T08:46:36.031Z,29.92
2022-12-12T08:49:03.915Z,29.52
2022-12-12T08:51:31.830Z,28.35
2022-12-12T08:53:59.616Z,30.02
2022-12-12T08:56:27.362Z,31.52
2022-12-12T08:58:55.093Z,29.55
2022-12-12T09:01:24.119Z,31.45
2022-12-12T09:03:54.719Z,31.05
2022-12-12T09:06:22.955Z,31.13
2022-12-12T09:08:50.909Z,32.60
2022-12-12T09:11:18.830Z,30.20
2022-12-12T09:13:46.668Z,31.48
2022-12-12T09:16:14.841Z,34.22
2022-12-12T09:18:48.576Z,31.23
2022-12-12T09:21:18.431Z,33.65
2022-12-12T09:23:46.398Z,30.85
2022-12-12T09:26:14.040Z,29.90
2022-12-12T09:28:42.502Z,31.38
2022-12-12T09:31:13.395Z,36.35
2022-12-12T09:33:42.879Z,29.80
2022-12-12T09:36:11.917Z,31.23
2022-12-12T09:38:41.237Z,30.20
2022-12-12T09:41:13.464Z,29.92
2022-12-12T09:43:47.672Z,26.95
2022-12-12T09:46:27.494Z,26.33
2022-12-12T09:48:58.341Z,30.85
2022-12-12T09:51:26.198Z,26.38
2022-12-12T09:53:55.449Z,29.95
2022-12-12T09:56:26.488Z,31.25
2022-12-12T09:58:58.526Z,30.60
2022-12-12T10:01:30.479Z,32.05
2022-12-12T10:04:06.475Z,35.88
2022-12-12T10:06:39.790Z,33.38
2022-12-12T10:09:26.948Z,36.17
2022-12-12T10:11:55.417Z,35.60
2022-12-12T10:14:32.123Z,37.72
2022-12-12T10:17:01.383Z,36.92
2022-12-12T10:19:31.725Z,39.40
2022-12-12T10:22:03.394Z,37.78
2022-12-12T10:24:37.971Z,38.47
2022-12-12T10:27:11.234Z,38.67
2022-12-12T10:29:41.676Z,40.75
2022-12-12T10:32:15.962Z,43.97
2022-12-12T10:34:55.191Z,45.17
2022-12-12T10:37:35.862Z,45.60
2022-12-12T10:40:22.784Z,45.47
2022-12-12T10:42:55.196Z,50.63
2022-12-12T10:45:41.868Z,48.10
2022-12-12T10:48:09.615Z,49.78
2022-12-12T10:50:39.880Z,47.88
2022-12-12T10:53:10.287Z,51.28
2022-12-12T10:55:43.270Z,47.22
2022-12-12T10:58:11.036Z,46.97
2022-12-12T11:00:40.058Z,48.58
2022-12-12T11:03:24.939Z,50.60
2022-12-12T11:05:52.680Z,51.42
2022-12-12T11:08:23.472Z,54.58
2022-12-12T11:11:05.337Z,53.05
2022-12-12T11:13:33.842Z,52.42
2022-12-12T11:16:03.306Z,53.33
2022-12-12T11:18:31.144Z,55.95
2022-12-12T11:21:07.328Z,56.10
2022-12-12T11:23:36.826Z,61.28
2022-12-12T11:26:11.371Z,53.67
2022-12-12T11:28:40.006Z,55.42
2022-12-12T11:31:09.847Z,56.42
2022-12-12T11:33:42.400Z,48.30
2022-12-12T11:36:15.075Z,44.67
2022-12-12T11:38:48.486Z,49.92
2022-12-12T11:41:18.008Z,50.85
2022-12-12T11:43:59.812Z,53.10
2022-12-12T11:46:29.377Z,50.03
2022-12-12T11:49:02.603Z,55.63
2022-12-12T11:51:36.907Z,50.97
2022-12-12T11:54:07.119Z,53.60
2022-12-12T11:56:52.248Z,52.08
2022-12-12T11:59:34.060Z,49.58
2022-12-12T12:02:16.745Z,51.75
2022-12-12T12:04:53.402Z,51.03
2022-12-12T12:07:40.001Z,50.30
2022-12-12T12:10:11.467Z,57.30
2022-12-12T12:12:48.969Z,50.17
2022-12-12T12:15:31.988Z,52.42
2022-12-12T12:18:15.173Z,46.08
2022-12-12T12:21:02.788Z,54.30
2022-12-12T12:23:42.488Z,52.45
2022-12-12T12:26:15.843Z,45.55
2022-12-12T12:29:13.175Z,44.88
2022-12-12T12:31:46.867Z,44.60
2022-12-12T12:34:22.865Z,44.65
2022-12-12T12:37:00.732Z,47.22
2022-12-12T12:39:43.417Z,42.40
2022-12-12T12:42:21.295Z,44.40
2022-12-12T12:44:53.321Z,40.47
2022-12-12T12:47:28.692Z,42.28
2022-12-12T12:49:59.713Z,33.65
2022-12-12T12:52:31.890Z,30.33
2022-12-12T12:55:00.861Z,32.67
2022-12-12T12:57:31.687Z,30.85
2022-12-12T13:00:05.803Z,29.92
2022-12-12T13:02:42.381Z,32.28
2022-12-12T13:05:14.937Z,30.58
2022-12-12T13:07:47.527Z,22.95
2022-12-12T13:10:19.751Z,19.90
2022-12-12T13:12:51.815Z,19.83
2022-12-12T13:15:24.560Z,20.88
2022-12-12T13:17:57.578Z,22.40
2022-12-12T13:20:26.464Z,21.60
2022-12-12T13:23:07.284Z,23.05
2022-12-12T13:25:40.137Z,22.65
2022-12-12T13:28:13.720Z,24.45
2022-12-12T13:30:53.611Z,21.98
2022-12-12T13:33:36.547Z,18.55
2022-12-12T13:36:11.556Z,19.25
2022-12-12T13:38:39.987Z,17.20
2022-12-12T13:41:09.013Z,19.77
2022-12-12T13:43:47.936Z,18.17
2022-12-12T13:46:40.212Z,17.75
2022-12-12T13:49:28.904Z,17.65
2022-12-12T13:52:24.789Z,16.33
2022-12-12T13:57:32.010Z,18.60
2022-12-12T14:00:24.080Z,18.17
2022-12-12T14:03:05.858Z,22.15
2022-12-12T14:05:36.343Z,18.63
2022-12-12T14:08:08.655Z,18.45
2022-12-12T14:10:38.329Z,20.10
2022-12-12T14:13:27.672Z,18.42
2022-12-12T14:16:05.310Z,17.73
2022-12-12T14:18:36.993Z,16.27
2022-12-12T14:21:06.392Z,17.98
2022-12-12T14:23:36.162Z,22.73
2022-12-12T14:26:53.901Z,17.73
2022-12-12T14:29:28.490Z,19.23
2022-12-12T14:32:14.840Z,25.08
2022-12-12T14:34:47.695Z,20.90
2022-12-12T14:37:29.835Z,20.00
2022-12-12T14:40:01.149Z,23.88
2022-12-12T14:43:20.976Z,23.05
2022-12-12T14:45:32.548Z,29.80
2022-12-12T14:48:21.036Z,31.02
2022-12-12T14:50:55.016Z,26.15
2022-12-12T14:53:24.516Z,29.88
2022-12-12T14:55:54.604Z,47.35
2022-12-12T14:58:26.380Z,45.38
2022-12-12T15:00:58.249Z,36.55
2022-12-12T15:03:28.680Z,35.92
2022-12-12T15:06:36.371Z,43.42
2022-12-12T15:09:24.601Z,40.47
2022-12-12T15:11:53.645Z,36.22
2022-12-12T15:14:23.422Z,31.13
2022-12-12T15:16:59.997Z,29.17
2022-12-12T15:19:30.259Z,29.85
2022-12-12T15:21:58.412Z,32.97
2022-12-12T15:24:28.722Z,26.63
2022-12-12T15:26:58.187Z,29.13
2022-12-12T15:29:28.148Z,23.23
2022-12-12T15:32:01.067Z,28.83
2022-12-12T15:34:37.525Z,28.00
2022-12-12T15:39:58.701Z,25.50
2022-12-12T15:42:26.536Z,22.88
2022-12-12T15:44:54.579Z,24.33
2022-12-12T15:47:23.788Z,24.33
2022-12-12T15:49:53.329Z,26.38
2022-12-12T15:52:23.264Z,27.42
2022-12-12T15:54:52.905Z,26.15
2022-12-12T15:57:22.035Z,26.35
2022-12-12T15:59:55.539Z,24.38
2022-12-12T16:02:26.590Z,28.30
2022-12-12T16:04:56.119Z,31.02
2022-12-12T16:07:24.476Z,33.13
2022-12-12T16:10:00.394Z,32.78
2022-12-12T16:12:56.951Z,32.47
2022-12-12T16:15:31.541Z,33.50
2022-12-12T16:18:06.870Z,30.48
2022-12-12T16:20:35.311Z,32.22
2022-12-12T16:23:20.186Z,26.55
2022-12-12T16:25:47.914Z,32.47
2022-12-12T16:28:25.365Z,26.98
2022-12-12T16:30:58.741Z,25.23
2022-12-12T16:33:31.232Z,24.80
2022-12-12T16:36:01.520Z,27.48
2022-12-12T16:38:29.823Z,28.25
2022-12-12T16:40:59.833Z,28.88
2022-12-12T16:43:27.925Z,31.67
2022-12-12T16:45:57.518Z,26.50
2022-12-12T16:48:27.048Z,27.10
2022-12-12T16:50:58.334Z,30.77
2022-12-12T16:53:27.121Z,28.70
2022-12-12T16:55:55.126Z,29.75
2022-12-12T16:58:22.947Z,31.55
2022-12-12T17:00:52.792Z,27.08
2022-12-12T17:03:21.308Z,28.60
2022-12-12T17:05:49.536Z,28.30
2022-12-12T17:08:19.094Z,30.08
2022-12-12T17:10:48.880Z,34.40
2022-12-12T17:13:18.540Z,38.95
2022-12-12T17:15:46.477Z,38.03
2022-12-12T17:18:14.728Z,48.00
2022-12-12T17:20:43.017Z,59.08
2022-12-12T17:23:29.925Z,58.50
2022-12-12T17:26:04.099Z,54.53
2022-12-12T17:28:33.250Z,49.60
2022-12-12T17:31:01.069Z,58.40
2022-12-12T17:33:29.004Z,53.97
2022-12-12T17:36:01.066Z,56.50
2022-12-12T17:38:30.263Z,49.17
2022-12-12T17:40:59.996Z,50.70
2022-12-12T17:43:27.777Z,45.03
2022-12-12T17:45:59.831Z,46.58
2022-12-12T17:48:29.321Z,49.25
2022-12-12T17:50:59.158Z,49.65
2022-12-12T17:53:26.985Z,54.63
2022-12-12T17:56:01.770Z,49.60
2022-12-12T17:58:38.593Z,51.72
2022-12-12T18:01:12.902Z,42.55
2022-12-12T18:03:40.729Z,41.83
2022-12-12T18:06:09.067Z,43.70
2022-12-12T18:08:36.880Z,45.90
2022-12-12T18:11:07.625Z,46.25
2022-12-12T18:13:38.736Z,44.67
2022-12-12T18:16:07.732Z,50.97
2022-12-12T18:18:35.576Z,49.40
2022-12-12T18:21:04.835Z,49.85
2022-12-12T18:23:32.645Z,45.20
2022-12-12T18:26:04.819Z,44.97
2022-12-12T18:28:32.612Z,47.70
2022-12-12T18:31:01.783Z,50.53
2022-12-12T18:33:29.517Z,57.58
2022-12-12T18:36:02.665Z,52.10
2022-12-12T18:38:30.774Z,49.72
2022-12-12T18:40:58.476Z,49.08
2022-12-12T18:43:27.765Z,49.83
2022-12-12T18:45:55.991Z,48.90
2022-12-12T18:48:25.153Z,39.45
2022-12-12T18:50:52.885Z,40.95
2022-12-12T18:53:20.828Z,44.08
2022-12-12T18:55:48.595Z,40.83
2022-12-12T18:58:16.261Z,45.13
2022-12-12T19:00:43.895Z,44.97
2022-12-12T19:03:11.553Z,43.15
2022-12-12T19:05:43.540Z,45.88
2022-12-12T19:08:11.986Z,46.70
2022-12-12T19:10:40.830Z,42.42
2022-12-12T19:13:08.765Z,53.45
2022-12-12T19:15:36.553Z,72.57
2022-12-12T19:18:04.395Z,62.08
2022-12-12T19:20:32.102Z,54.63
2022-12-12T19:23:01.229Z,54.90
2022-12-12T19:25:28.980Z,53.10
2022-12-12T19:28:32.989Z,48.78
2022-12-12T19:36:16.392Z,60.35
2022-12-12T19:39:32.463Z,72.13
2022-12-12T19:45:04.604Z,77.00
2022-12-12T19:47:35.925Z,89.95
2022-12-12T19:50:03.794Z,83.38
2022-12-12T19:52:31.686Z,80.97
2022-12-12T19:54:59.975Z,76.75
2022-12-12T19:57:29.776Z,79.82
2022-12-12T19:59:57.947Z,68.65
2022-12-12T20:02:26.067Z,68.53
2022-12-12T20:04:57.200Z,64.78
2022-12-12T20:07:25.432Z,61.05
2022-12-12T20:09:56.178Z,58.50
